Time;durP1;ratioP1;P1;durP2;ratioP2;P2;SDS_P1;SDS_P2;PMS_P1;PMS_P2;Temp;Humidity;BMP_temperature;BMP_pressure;BME280_temperature;BME280_humidity;BME280_pressure;Samples;Min_cycle;Max_cycle;Signal;HPM_P1;HPM_P2
2022/02/06 00:00:52;;;;;;;;;;;21.70;46.30;;;;;;5095009;28;19924;-48
2022/02/06 00:03:20;;;;;;;;;;;21.70;46.30;;;;;;5113844;27;19968;-48
2022/02/06 00:05:48;;;;;;;;;;;21.70;46.30;;;;;;5146356;27;19927;-46
2022/02/06 00:08:16;;;;;;;;;;;21.70;46.30;;;;;;5137951;27;20006;-47
2022/02/06 00:10:43;;;;;;;;;;;21.70;46.40;;;;;;5137615;27;20378;-46
2022/02/06 00:13:09;;;;;;;;;;;21.70;46.30;;;;;;5151335;27;19973;-46
2022/02/06 00:15:36;;;;;;;;;;;21.70;46.30;;;;;;5158580;27;20340;-47
2022/02/06 00:18:03;;;;;;;;;;;21.70;46.40;;;;;;5158310;27;19981;-49
2022/02/06 00:20:35;;;;;;;;;;;21.60;46.20;;;;;;5157645;27;20293;-48
2022/02/06 00:23:07;;;;;;;;;;;21.70;46.30;;;;;;5158394;27;19962;-52
2022/02/06 00:30:57;;;;;;;;;;;21.60;46.20;;;;;;5158253;27;19927;-45
2022/02/06 00:43:28;;;;;;;;;;;21.60;46.20;;;;;;5150219;27;20021;-45
2022/02/06 00:45:56;;;;;;;;;;;21.60;46.20;;;;;;5157910;27;19924;-48
2022/02/06 00:48:26;;;;;;;;;;;21.60;46.20;;;;;;5158405;27;19923;-46
2022/02/06 00:51:16;;;;;;;;;;;21.60;46.20;;;;;;5156946;27;19923;-45
2022/02/06 00:53:43;;;;;;;;;;;21.60;46.20;;;;;;5156980;27;19944;-44
2022/02/06 00:56:10;;;;;;;;;;;21.60;46.20;;;;;;5156854;27;19923;-47
2022/02/06 00:58:38;;;;;;;;;;;21.60;46.20;;;;;;5156703;27;19958;-44
2022/02/06 01:01:04;;;;;;;;;;;21.60;46.20;;;;;;5157385;27;19923;-47
2022/02/06 01:03:31;;;;;;;;;;;21.60;46.20;;;;;;5157267;27;19927;-44
2022/02/06 01:05:59;;;;;;;;;;;21.60;46.20;;;;;;5142758;27;19924;-43
2022/02/06 01:08:26;;;;;;;;;;;21.60;46.20;;;;;;5136784;27;20378;-45
2022/02/06 01:10:53;;;;;;;;;;;21.60;46.20;;;;;;5136420;27;20026;-44
2022/02/06 01:14:09;;;;;;;;;;;21.60;46.20;;;;;;5145781;27;19952;-45
2022/02/06 01:16:17;;;;;;;;;;;21.60;46.20;;;;;;5148816;27;20393;-42
2022/02/06 01:18:54;;;;;;;;;;;21.60;46.20;;;;;;5156909;27;20390;-44
2022/02/06 01:21:34;;;;;;;;;;;21.60;46.20;;;;;;5156304;27;19954;-47
2022/02/06 01:29:23;;;;;;;;;;;21.60;46.10;;;;;;5156251;27;19923;-43
2022/02/06 01:32:13;;;;;;;;;;;21.60;46.10;;;;;;5157089;27;20001;-43
2022/02/06 01:35:06;;;;;;;;;;;21.60;46.10;;;;;;5156074;27;20310;-43
2022/02/06 01:37:42;;;;;;;;;;;21.60;46.10;;;;;;5156317;27;20386;-45
2022/02/06 01:40:32;;;;;;;;;;;21.60;46.10;;;;;;5156613;27;20378;-43
2022/02/06 01:43:04;;;;;;;;;;;21.60;46.10;;;;;;5155480;27;19978;-47
2022/02/06 02:46:53;;;;;;;;;;;21.60;46.00;;;;;;5096724;27;20010;-48
2022/02/06 02:49:24;;;;;;;;;;;21.60;46.00;;;;;;5135030;27;20026;-45
2022/02/06 02:51:57;;;;;;;;;;;21.60;46.00;;;;;;5134923;27;19984;-47
2022/02/06 02:54:27;;;;;;;;;;;21.60;46.00;;;;;;5134937;27;19924;-46
2022/02/06 02:57:13;;;;;;;;;;;21.60;46.00;;;;;;5134557;27;20010;-46
2022/02/06 03:02:16;;;;;;;;;;;21.60;46.00;;;;;;5134900;27;20005;-46
2022/02/06 03:04:48;;;;;;;;;;;21.60;46.00;;;;;;5137240;27;19931;-47
2022/02/06 03:07:15;;;;;;;;;;;21.60;46.00;;;;;;5155555;27;20020;-47
2022/02/06 03:09:44;;;;;;;;;;;21.60;46.00;;;;;;5155467;27;19923;-48
2022/02/06 03:12:13;;;;;;;;;;;21.60;46.00;;;;;;5155474;27;20361;-45
2022/02/06 03:14:46;;;;;;;;;;;21.60;45.90;;;;;;5154402;27;19923;-44
2022/02/06 03:17:22;;;;;;;;;;;21.60;45.90;;;;;;5155445;27;20021;-46
2022/02/06 03:19:55;;;;;;;;;;;21.60;45.90;;;;;;5159384;27;20016;-47
2022/02/06 03:22:31;;;;;;;;;;;21.60;45.90;;;;;;5159790;27;19935;-44
2022/02/06 03:25:06;;;;;;;;;;;21.60;45.90;;;;;;5159228;27;20439;-45
2022/02/06 03:27:33;;;;;;;;;;;21.60;45.90;;;;;;5159575;27;20014;-48
2022/02/06 03:29:59;;;;;;;;;;;21.60;45.90;;;;;;5158378;27;20347;-46
2022/02/06 03:32:26;;;;;;;;;;;21.60;45.90;;;;;;5159108;27;19967;-43
2022/02/06 03:34:53;;;;;;;;;;;21.60;45.90;;;;;;5159044;27;19944;-44
2022/02/06 03:37:20;;;;;;;;;;;21.60;45.90;;;;;;5158998;27;19923;-51
2022/02/06 03:39:51;;;;;;;;;;;21.60;45.90;;;;;;5159275;27;20286;-44
2022/02/06 03:42:18;;;;;;;;;;;21.60;45.90;;;;;;5159252;27;19987;-44
2022/02/06 03:44:50;;;;;;;;;;;21.60;45.80;;;;;;5158282;27;19975;-46
2022/02/06 03:49:55;;;;;;;;;;;21.60;45.80;;;;;;5140655;27;19923;-45
2022/02/06 03:52:32;;;;;;;;;;;21.60;45.90;;;;;;5158577;27;19977;-47
2022/02/06 03:54:59;;;;;;;;;;;21.60;45.80;;;;;;5158691;27;19958;-44
2022/02/06 03:57:26;;;;;;;;;;;21.60;45.80;;;;;;5159472;27;20053;-47
2022/02/06 03:59:53;;;;;;;;;;;21.60;45.80;;;;;;5157598;27;20018;-49
2022/02/06 04:02:20;;;;;;;;;;;21.60;45.80;;;;;;5158861;27;19955;-44
2022/02/06 04:04:47;;;;;;;;;;;21.60;45.80;;;;;;5155154;27;19927;-46
2022/02/06 04:07:14;;;;;;;;;;;21.60;45.80;;;;;;5137730;27;20010;-44
2022/02/06 04:09:51;;;;;;;;;;;21.60;45.80;;;;;;5137979;27;19959;-46
2022/02/06 04:12:20;;;;;;;;;;;21.60;45.80;;;;;;5137650;27;19967;-45
2022/02/06 04:15:13;;;;;;;;;;;21.60;45.80;;;;;;5143065;27;20401;-46
2022/02/06 04:17:45;;;;;;;;;;;21.60;45.80;;;;;;5158221;27;20026;-46
2022/02/06 04:20:12;;;;;;;;;;;21.60;45.80;;;;;;5116898;28;19977;-45
2022/02/06 04:22:38;;;;;;;;;;;21.60;45.80;;;;;;5117019;28;19924;-46
2022/02/06 04:25:05;;;;;;;;;;;21.60;45.80;;;;;;5115822;28;19924;-45
2022/02/06 04:27:32;;;;;;;;;;;21.60;45.80;;;;;;5116788;28;19963;-45
2022/02/06 04:29:59;;;;;;;;;;;21.60;45.80;;;;;;5116032;28;19924;-45
2022/02/06 04:32:27;;;;;;;;;;;21.60;45.80;;;;;;5116998;28;19924;-46
2022/02/06 04:34:55;;;;;;;;;;;21.60;45.80;;;;;;5116641;28;19930;-46
2022/02/06 05:12:51;;;;;;;;;;;21.60;45.70;;;;;;5116221;28;19924;-49
2022/02/06 05:21:21;;;;;;;;;;;21.60;45.70;;;;;;5095704;28;20010;-46
2022/02/06 05:28:58;;;;;;;;;;;21.50;45.60;;;;;;5052977;28;19925;-45
2022/02/06 05:34:25;;;;;;;;;;;21.60;45.60;;;;;;4993722;28;20020;-46
2022/02/06 05:36:52;;;;;;;;;;;21.60;45.60;;;;;;4993493;28;19926;-45
2022/02/06 05:39:18;;;;;;;;;;;21.60;45.60;;;;;;4993426;28;20473;-44
2022/02/06 05:41:46;;;;;;;;;;;21.60;45.60;;;;;;4992825;28;19961;-43
2022/02/06 05:44:12;;;;;;;;;;;21.60;45.60;;;;;;4993418;28;19969;-46
2022/02/06 05:46:39;;;;;;;;;;;21.60;45.60;;;;;;4992696;28;19926;-45
2022/02/06 05:49:09;;;;;;;;;;;21.60;45.60;;;;;;4993264;28;19957;-47
2022/02/06 05:51:36;;;;;;;;;;;21.60;45.60;;;;;;4993061;28;19929;-48
2022/02/06 05:54:03;;;;;;;;;;;21.60;45.60;;;;;;4993177;28;19926;-46
2022/02/06 05:56:30;;;;;;;;;;;21.60;45.60;;;;;;5003042;28;19971;-45
2022/02/06 05:58:57;;;;;;;;;;;21.60;45.60;;;;;;5032477;28;19925;-44
2022/02/06 06:01:23;;;;;;;;;;;21.60;45.60;;;;;;5031808;28;20468;-45
2022/02/06 06:03:51;;;;;;;;;;;21.60;45.60;;;;;;5032487;28;20104;-48
2022/02/06 06:06:18;;;;;;;;;;;21.50;45.50;;;;;;5016478;28;19967;-46
2022/02/06 06:08:45;;;;;;;;;;;21.50;45.50;;;;;;5012545;28;19926;-46
2022/02/06 06:11:12;;;;;;;;;;;21.50;45.50;;;;;;5092137;28;19966;-45
2022/02/06 06:13:38;;;;;;;;;;;21.50;45.50;;;;;;5094358;28;19925;-48
2022/02/06 06:16:07;;;;;;;;;;;21.60;45.60;;;;;;5093582;28;20522;-44
2022/02/06 06:18:35;;;;;;;;;;;21.50;45.50;;;;;;5109380;27;20440;-46
2022/02/06 06:21:03;;;;;;;;;;;21.50;45.50;;;;;;5135515;27;19931;-46
2022/02/06 06:23:30;;;;;;;;;;;21.50;45.50;;;;;;5135234;27;20340;-50
2022/02/06 06:25:57;;;;;;;;;;;21.50;45.50;;;;;;5134936;27;19967;-47
2022/02/06 06:28:24;;;;;;;;;;;21.50;45.50;;;;;;5135011;27;19952;-47
2022/02/06 06:30:54;;;;;;;;;;;21.50;45.50;;;;;;5137701;27;20454;-47
2022/02/06 06:33:22;;;;;;;;;;;21.50;45.50;;;;;;5155903;27;19923;-47
2022/02/06 06:35:53;;;;;;;;;;;21.50;45.50;;;;;;5155957;27;19924;-44
2022/02/06 06:38:21;;;;;;;;;;;21.50;45.50;;;;;;5155884;27;19976;-47
2022/02/06 06:40:48;;;;;;;;;;;21.50;45.50;;;;;;5155499;27;19927;-46
2022/02/06 06:43:15;;;;;;;;;;;21.50;45.40;;;;;;5155466;27;20022;-45
2022/02/06 06:45:43;;;;;;;;;;;21.50;46.00;;;;;;5154398;27;20446;-50
2022/02/06 06:48:10;;;;;;;;;;;21.50;45.40;;;;;;5155411;27;19929;-53
2022/02/06 06:50:38;;;;;;;;;;;21.50;45.40;;;;;;5155606;27;19974;-48
2022/02/06 06:53:06;;;;;;;;;;;21.50;45.40;;;;;;5154738;27;20005;-46
2022/02/06 06:55:35;;;;;;;;;;;21.50;45.40;;;;;;5155347;27;20449;-46
2022/02/06 06:58:13;;;;;;;;;;;21.50;45.40;;;;;;5155268;27;20390;-46
2022/02/06 07:00:54;;;;;;;;;;;21.50;45.40;;;;;;5155285;27;19923;-49
2022/02/06 07:03:24;;;;;;;;;;;21.50;45.40;;;;;;5155640;27;20304;-49
2022/02/06 07:05:51;;;;;;;;;;;21.50;45.40;;;;;;5142724;27;20321;-43
2022/02/06 07:08:19;;;;;;;;;;;21.50;45.40;;;;;;5134469;28;20375;-46
2022/02/06 07:10:47;;;;;;;;;;;21.60;45.40;;;;;;5134716;28;19923;-44
2022/02/06 07:13:14;;;;;;;;;;;21.60;45.40;;;;;;5134726;28;19966;-44
2022/02/06 07:15:41;;;;;;;;;;;21.60;45.40;;;;;;5134400;28;19923;-43
2022/02/06 07:18:08;;;;;;;;;;;21.60;45.40;;;;;;5133912;27;20394;-45
2022/02/06 07:20:37;;;;;;;;;;;21.60;45.40;;;;;;5116537;28;19923;-47
2022/02/06 07:23:05;;;;;;;;;;;21.60;45.40;;;;;;5134481;28;20333;-47
2022/02/06 07:25:33;;;;;;;;;;;21.60;45.40;;;;;;5134240;28;19923;-46
2022/02/06 07:28:02;;;;;;;;;;;21.60;45.40;;;;;;5134266;28;19923;-45
2022/02/06 07:30:29;;;;;;;;;;;21.60;45.40;;;;;;5134240;28;19972;-45
2022/02/06 07:32:56;;;;;;;;;;;21.60;45.40;;;;;;5149362;27;19923;-47
2022/02/06 07:35:23;;;;;;;;;;;21.60;45.40;;;;;;5155190;27;19969;-43
2022/02/06 07:37:55;;;;;;;;;;;21.60;45.40;;;;;;5154920;27;20022;-46
2022/02/06 07:40:23;;;;;;;;;;;21.60;45.30;;;;;;5155151;27;19976;-44
2022/02/06 07:42:50;;;;;;;;;;;21.60;45.30;;;;;;5155190;27;19922;-44
2022/02/06 07:45:17;;;;;;;;;;;21.60;45.30;;;;;;5155014;27;19976;-43
2022/02/06 07:47:45;;;;;;;;;;;21.60;45.30;;;;;;5153794;27;20002;-45
2022/02/06 07:50:14;;;;;;;;;;;21.60;45.30;;;;;;5154699;27;19973;-47
2022/02/06 07:52:41;;;;;;;;;;;21.60;45.80;;;;;;5154956;27;20361;-48
2022/02/06 07:55:09;;;;;;;;;;;21.60;45.20;;;;;;5154743;27;19983;-48
2022/02/06 07:57:36;;;;;;;;;;;21.60;45.20;;;;;;5154965;27;20437;-46
2022/02/06 08:00:04;;;;;;;;;;;21.60;45.20;;;;;;5154984;27;19966;-44
2022/02/06 08:02:32;;;;;;;;;;;21.60;45.20;;;;;;5154238;27;19923;-46
2022/02/06 08:04:59;;;;;;;;;;;21.60;45.20;;;;;;5152366;27;19923;-47
2022/02/06 08:07:26;;;;;;;;;;;21.60;45.20;;;;;;5137974;27;20341;-44
2022/02/06 08:09:59;;;;;;;;;;;21.60;45.20;;;;;;5137692;27;20443;-45
2022/02/06 08:12:29;;;;;;;;;;;21.60;45.20;;;;;;5137986;27;19923;-44
2022/02/06 08:15:00;;;;;;;;;;;21.60;45.10;;;;;;5137627;27;19989;-49
2022/02/06 08:17:29;;;;;;;;;;;21.60;45.10;;;;;;5144307;27;20479;-45
2022/02/06 08:19:57;;;;;;;;;;;21.60;45.10;;;;;;5158181;27;19958;-45
2022/02/06 08:22:24;;;;;;;;;;;21.60;45.10;;;;;;5158329;27;20009;-49
2022/02/06 08:24:52;;;;;;;;;;;21.70;45.10;;;;;;5158150;27;19923;-47
2022/02/06 08:27:20;;;;;;;;;;;21.70;45.10;;;;;;5158307;27;19970;-45
2022/02/06 08:29:47;;;;;;;;;;;21.70;45.10;;;;;;5158317;27;19931;-44
2022/02/06 08:32:15;;;;;;;;;;;21.70;45.10;;;;;;5157130;27;20017;-45
2022/02/06 08:34:46;;;;;;;;;;;21.70;45.00;;;;;;5157969;27;19924;-48
2022/02/06 08:37:13;;;;;;;;;;;21.70;45.00;;;;;;5158162;27;19926;-44
2022/02/06 08:39:41;;;;;;;;;;;21.70;45.00;;;;;;5158411;27;19923;-49
2022/02/06 08:42:09;;;;;;;;;;;21.70;45.00;;;;;;5158130;27;20013;-48
2022/02/06 08:44:38;;;;;;;;;;;21.70;45.00;;;;;;5157701;27;19962;-49
2022/02/06 08:47:05;;;;;;;;;;;21.70;44.90;;;;;;5155188;27;19923;-48
2022/02/06 08:49:32;;;;;;;;;;;21.70;44.90;;;;;;5137070;27;19966;-45
2022/02/06 08:51:59;;;;;;;;;;;21.70;44.90;;;;;;5136517;27;19923;-48
2022/02/06 08:54:30;;;;;;;;;;;21.70;44.80;;;;;;5137003;27;20018;-47
2022/02/06 08:57:22;;;;;;;;;;;21.80;44.90;;;;;;5136785;27;19941;-45
2022/02/06 08:59:49;;;;;;;;;;;21.80;44.80;;;;;;5136699;27;20010;-46
2022/02/06 09:02:16;;;;;;;;;;;21.80;44.80;;;;;;5137600;27;20010;-46
2022/02/06 09:04:44;;;;;;;;;;;21.80;44.70;;;;;;5135935;27;19970;-45
2022/02/06 09:07:12;;;;;;;;;;;21.80;44.70;;;;;;5136808;27;19928;-44
2022/02/06 09:09:44;;;;;;;;;;;21.80;44.70;;;;;;5136502;27;19972;-47
2022/02/06 09:12:11;;;;;;;;;;;21.80;44.60;;;;;;5136492;27;20421;-44
2022/02/06 09:14:38;;;;;;;;;;;21.90;44.70;;;;;;5136027;27;19977;-45
2022/02/06 09:17:05;;;;;;;;;;;21.90;44.60;;;;;;5135723;27;19931;-46
2022/02/06 09:19:36;;;;;;;;;;;21.90;44.60;;;;;;5154783;27;19975;-46
2022/02/06 09:22:04;;;;;;;;;;;21.90;44.60;;;;;;5156869;27;20022;-45
2022/02/06 09:24:31;;;;;;;;;;;21.90;44.50;;;;;;5138640;27;19927;-47
2022/02/06 09:26:58;;;;;;;;;;;21.90;44.50;;;;;;5157157;27;20351;-45
2022/02/06 09:29:25;;;;;;;;;;;21.90;44.50;;;;;;5156861;27;19923;-44
2022/02/06 09:31:53;;;;;;;;;;;22.00;44.50;;;;;;5156989;27;19930;-44
2022/02/06 09:37:06;;;;;;;;;;;22.00;44.40;;;;;;5157299;27;20351;-46
2022/02/06 09:39:38;;;;;;;;;;;22.00;44.30;;;;;;5156680;27;19970;-43
2022/02/06 09:42:05;;;;;;;;;;;22.00;44.30;;;;;;5156655;27;19974;-44
2022/02/06 09:44:33;;;;;;;;;;;22.00;44.20;;;;;;5156575;27;19966;-45
2022/02/06 09:47:00;;;;;;;;;;;22.10;44.30;;;;;;5146095;27;19924;-46
2022/02/06 09:49:28;;;;;;;;;;;22.10;44.20;;;;;;5135063;27;19923;-46
2022/02/06 09:51:55;;;;;;;;;;;22.10;44.10;;;;;;5135451;27;20382;-46
2022/02/06 09:54:24;;;;;;;;;;;22.10;44.00;;;;;;5135929;27;19972;-48
2022/02/06 09:56:54;;;;;;;;;;;22.20;44.10;;;;;;5135585;27;20387;-50
2022/02/06 09:59:22;;;;;;;;;;;22.20;44.00;;;;;;5135820;27;19923;-45
2022/02/06 10:01:57;;;;;;;;;;;22.20;44.00;;;;;;5135437;27;19968;-47
2022/02/06 10:04:26;;;;;;;;;;;22.20;44.00;;;;;;5149080;27;19923;-44
2022/02/06 10:07:06;;;;;;;;;;;22.20;44.00;;;;;;5146502;27;19949;-44
2022/02/06 10:09:43;;;;;;;;;;;22.20;43.90;;;;;;5156358;27;19967;-45
2022/02/06 10:12:10;;;;;;;;;;;22.20;43.90;;;;;;5156882;27;19923;-47
2022/02/06 10:14:38;;;;;;;;;;;22.20;43.90;;;;;;5155946;27;20367;-44
2022/02/06 10:17:06;;;;;;;;;;;22.20;43.90;;;;;;5155911;27;20022;-44
2022/02/06 10:19:35;;;;;;;;;;;22.20;43.90;;;;;;5154590;27;19923;-45
2022/02/06 10:22:21;;;;;;;;;;;22.20;43.90;;;;;;5138081;27;19962;-46
2022/02/06 10:25:03;;;;;;;;;;;22.20;43.80;;;;;;5156118;27;20331;-46
2022/02/06 10:27:52;;;;;;;;;;;22.20;43.80;;;;;;5155424;27;19975;-44
2022/02/06 10:30:36;;;;;;;;;;;22.20;43.80;;;;;;5155665;27;20389;-43
2022/02/06 10:33:11;;;;;;;;;;;22.30;43.80;;;;;;5154744;27;19923;-46
2022/02/06 10:35:39;;;;;;;;;;;22.30;43.80;;;;;;5155643;27;20370;-48
2022/02/06 10:38:14;;;;;;;;;;;22.30;43.80;;;;;;5155880;27;19995;-45
2022/02/06 10:40:41;;;;;;;;;;;22.30;43.80;;;;;;5155840;27;20294;-47
2022/02/06 10:43:12;;;;;;;;;;;22.30;43.80;;;;;;5155807;27;19927;-43
2022/02/06 10:45:39;;;;;;;;;;;22.40;43.80;;;;;;5155401;27;20022;-44
2022/02/06 10:48:20;;;;;;;;;;;22.30;43.70;;;;;;5155324;27;19923;-46
2022/02/06 10:50:48;;;;;;;;;;;22.40;43.80;;;;;;5134581;27;19972;-45
2022/02/06 10:53:15;;;;;;;;;;;22.40;43.80;;;;;;5134789;27;19923;-48
2022/02/06 10:55:58;;;;;;;;;;;22.40;43.80;;;;;;5134933;27;19931;-46
2022/02/06 10:58:27;;;;;;;;;;;22.40;43.80;;;;;;5134565;27;20385;-45
2022/02/06 11:00:54;;;;;;;;;;;22.40;43.70;;;;;;5134562;27;19963;-44
2022/02/06 11:03:37;;;;;;;;;;;22.40;43.70;;;;;;5134452;27;19969;-44
2022/02/06 11:06:22;;;;;;;;;;;22.40;43.70;;;;;;5148916;27;19923;-45
2022/02/06 11:08:48;;;;;;;;;;;22.40;43.70;;;;;;5155543;27;19954;-46
2022/02/06 11:11:15;;;;;;;;;;;22.40;43.70;;;;;;5155399;27;19930;-44
2022/02/06 11:13:42;;;;;;;;;;;22.40;43.60;;;;;;5155086;27;19959;-46
2022/02/06 11:16:17;;;;;;;;;;;22.40;43.60;;;;;;5155109;27;20426;-44
2022/02/06 11:18:50;;;;;;;;;;;22.40;43.60;;;;;;5153893;27;20423;-47
2022/02/06 11:21:18;;;;;;;;;;;22.40;43.60;;;;;;5155054;27;20378;-46
2022/02/06 11:23:50;;;;;;;;;;;22.50;43.60;;;;;;5155389;27;19963;-45
2022/02/06 11:26:22;;;;;;;;;;;22.50;43.60;;;;;;5154963;27;19934;-45
2022/02/06 11:28:54;;;;;;;;;;;22.50;43.60;;;;;;5155355;27;19922;-45
2022/02/06 11:31:21;;;;;;;;;;;22.50;43.60;;;;;;5155055;27;19975;-47
2022/02/06 11:33:49;;;;;;;;;;;22.50;43.60;;;;;;5153861;27;19974;-44
2022/02/06 11:43:00;;;;;;;;;;;22.50;43.50;;;;;;5154989;27;19927;-47
2022/02/06 11:45:12;;;;;;;;;;;22.50;43.50;;;;;;5159342;27;20354;-46
2022/02/06 11:47:46;;;;;;;;;;;22.50;43.50;;;;;;5159087;27;19923;-46
2022/02/06 11:50:14;;;;;;;;;;;22.50;43.40;;;;;;5158001;27;19976;-44
2022/02/06 11:52:50;;;;;;;;;;;22.60;43.50;;;;;;5159156;27;19923;-44
2022/02/06 11:55:35;;;;;;;;;;;22.50;43.40;;;;;;5158727;27;20027;-45
2022/02/06 11:58:20;;;;;;;;;;;22.50;43.40;;;;;;5158767;27;19973;-44
2022/02/06 12:01:07;;;;;;;;;;;22.60;43.50;;;;;;5158621;27;19923;-46
2022/02/06 12:03:53;;;;;;;;;;;22.60;43.50;;;;;;5158285;27;19923;-46
2022/02/06 12:06:21;;;;;;;;;;;22.60;43.40;;;;;;5140823;27;19966;-44
2022/02/06 12:09:00;;;;;;;;;;;22.60;43.40;;;;;;5119584;27;20423;-48
2022/02/06 12:11:34;;;;;;;;;;;22.60;43.40;;;;;;5120076;27;19927;-45
2022/02/06 12:14:13;;;;;;;;;;;22.60;43.40;;;;;;5137625;27;20042;-47
2022/02/06 12:17:07;;;;;;;;;;;22.60;43.40;;;;;;5137856;27;19923;-43
2022/02/06 12:19:34;;;;;;;;;;;22.70;43.50;;;;;;5139866;27;19938;-44
2022/02/06 12:22:20;;;;;;;;;;;22.70;43.50;;;;;;5157987;27;20026;-45
2022/02/06 12:24:48;;;;;;;;;;;22.70;43.50;;;;;;5159020;27;19929;-44
2022/02/06 12:27:24;;;;;;;;;;;22.70;43.40;;;;;;5158533;27;19948;-45
2022/02/06 12:30:03;;;;;;;;;;;22.70;44.00;;;;;;5158018;27;20404;-45
2022/02/06 12:32:39;;;;;;;;;;;22.70;43.40;;;;;;5158346;27;19923;-47
2022/02/06 12:37:53;;;;;;;;;;;22.80;43.40;;;;;;5157889;27;20386;-45
2022/02/06 12:40:21;;;;;;;;;;;22.80;43.30;;;;;;5157844;27;20338;-47
2022/02/06 12:42:58;;;;;;;;;;;22.80;43.30;;;;;;5158130;27;19977;-44
2022/02/06 12:45:26;;;;;;;;;;;22.80;43.40;;;;;;5157678;27;19964;-47
2022/02/06 12:47:59;;;;;;;;;;;22.80;43.30;;;;;;5157676;27;19972;-46
2022/02/06 12:50:33;;;;;;;;;;;22.80;43.30;;;;;;5156481;27;19923;-47
2022/02/06 12:53:00;;;;;;;;;;;22.80;43.30;;;;;;5157445;27;19923;-47
2022/02/06 12:55:32;;;;;;;;;;;22.80;43.40;;;;;;5157531;27;19923;-48
2022/02/06 12:57:59;;;;;;;;;;;22.80;43.40;;;;;;5157846;27;19927;-47
2022/02/06 13:00:27;;;;;;;;;;;22.80;43.40;;;;;;5157457;27;19962;-46
2022/02/06 13:03:14;;;;;;;;;;;22.80;43.30;;;;;;5157688;27;19946;-46
2022/02/06 13:05:48;;;;;;;;;;;22.80;43.30;;;;;;5154514;27;20019;-45
2022/02/06 13:08:15;;;;;;;;;;;22.80;43.30;;;;;;5157606;27;19952;-48
2022/02/06 13:10:53;;;;;;;;;;;22.80;43.40;;;;;;5157278;27;19923;-46
2022/02/06 13:13:26;;;;;;;;;;;22.80;43.40;;;;;;5157528;27;20006;-48
2022/02/06 13:19:28;;;;;;;;;;;22.80;43.40;;;;;;5157100;27;20013;-48
2022/02/06 13:27:02;;;;;;;;;;;22.80;43.30;;;;;;5156920;27;19923;-47
2022/02/06 13:32:21;;;;;;;;;;;22.90;43.40;;;;;;5157185;27;19923;-45
2022/02/06 13:37:46;;;;;;;;;;;22.90;43.40;;;;;;5119369;27;19923;-45
2022/02/06 13:40:18;;;;;;;;;;;22.90;43.40;;;;;;5136205;27;19927;-44
2022/02/06 13:43:01;;;;;;;;;;;22.90;43.40;;;;;;5136268;27;19959;-44
2022/02/06 13:45:28;;;;;;;;;;;22.90;43.40;;;;;;5135779;27;19923;-45
2022/02/06 13:47:56;;;;;;;;;;;22.90;43.40;;;;;;5135695;27;20018;-49
2022/02/06 13:50:24;;;;;;;;;;;22.90;43.40;;;;;;5137152;27;19972;-46
2022/02/06 13:53:07;;;;;;;;;;;22.90;43.40;;;;;;5156299;27;19930;-46
2022/02/06 13:55:34;;;;;;;;;;;22.90;43.40;;;;;;5156314;27;19923;-46
2022/02/06 13:58:01;;;;;;;;;;;22.90;43.40;;;;;;5156302;27;20023;-49
2022/02/06 14:00:28;;;;;;;;;;;22.90;43.40;;;;;;5156555;27;19973;-47
2022/02/06 14:02:56;;;;;;;;;;;22.90;43.40;;;;;;5156862;27;19983;-51
2022/02/06 14:05:26;;;;;;;;;;;22.90;43.40;;;;;;5147692;27;20018;-49
2022/02/06 14:08:07;;;;;;;;;;;22.90;43.40;;;;;;5156019;27;19976;-47
2022/02/06 14:11:11;;;;;;;;;;;22.90;43.40;;;;;;5156381;27;19923;-52
2022/02/06 14:13:28;;;;;;;;;;;22.90;43.40;;;;;;5153173;27;19923;-51
2022/02/06 14:16:21;;;;;;;;;;;22.90;43.40;;;;;;5156252;27;19923;-48
2022/02/06 14:18:49;;;;;;;;;;;23.00;43.40;;;;;;5151240;27;19962;-46
2022/02/06 14:21:16;;;;;;;;;;;23.00;43.40;;;;;;5154772;27;20341;-45
2022/02/06 14:23:43;;;;;;;;;;;23.00;43.40;;;;;;5155799;27;19930;-44
2022/02/06 14:26:15;;;;;;;;;;;23.00;43.40;;;;;;5155940;27;20308;-48
2022/02/06 14:28:46;;;;;;;;;;;23.00;43.40;;;;;;5138204;27;20327;-49
2022/02/06 14:31:27;;;;;;;;;;;22.90;43.40;;;;;;5155694;27;20378;-49
2022/02/06 14:34:13;;;;;;;;;;;22.90;43.40;;;;;;5155966;27;19976;-49
2022/02/06 14:36:40;;;;;;;;;;;22.90;43.40;;;;;;5154809;27;19970;-51
2022/02/06 14:39:07;;;;;;;;;;;22.90;43.40;;;;;;5155831;27;19976;-46
2022/02/06 14:41:59;;;;;;;;;;;22.90;43.40;;;;;;5137507;27;20013;-50
2022/02/06 14:44:26;;;;;;;;;;;22.90;43.50;;;;;;5155864;27;19923;-49
2022/02/06 14:46:53;;;;;;;;;;;22.90;43.50;;;;;;5155732;27;19923;-49
2022/02/06 14:49:22;;;;;;;;;;;22.90;43.50;;;;;;5155504;27;20085;-51
2022/02/06 14:51:50;;;;;;;;;;;22.90;43.60;;;;;;5154362;27;19929;-52
2022/02/06 14:54:20;;;;;;;;;;;22.90;43.60;;;;;;5155312;27;19973;-51
2022/02/06 14:56:48;;;;;;;;;;;22.90;43.60;;;;;;5156147;27;19930;-48
2022/02/06 14:59:16;;;;;;;;;;;22.90;43.60;;;;;;5155254;27;19981;-47
2022/02/06 15:01:44;;;;;;;;;;;22.80;43.50;;;;;;5155446;27;19973;-51
2022/02/06 15:04:13;;;;;;;;;;;22.90;43.60;;;;;;5155533;27;20059;-49
2022/02/06 15:06:40;;;;;;;;;;;22.80;43.60;;;;;;5141316;27;19952;-52
2022/02/06 15:09:07;;;;;;;;;;;22.80;43.60;;;;;;5155385;27;19975;-44
2022/02/06 15:11:35;;;;;;;;;;;22.80;43.70;;;;;;5155177;27;20405;-44
2022/02/06 15:14:02;;;;;;;;;;;22.80;43.70;;;;;;5157040;27;19927;-46
2022/02/06 15:16:32;;;;;;;;;;;22.80;43.80;;;;;;5159495;27;20018;-47
2022/02/06 15:19:13;;;;;;;;;;;22.80;43.80;;;;;;5159294;27;19927;-47
2022/02/06 15:21:41;;;;;;;;;;;22.80;43.80;;;;;;5158113;27;20373;-44
2022/02/06 15:24:08;;;;;;;;;;;22.70;43.70;;;;;;5159616;27;19923;-46
2022/02/06 15:26:35;;;;;;;;;;;22.70;43.80;;;;;;5159506;27;19923;-45
2022/02/06 15:29:06;;;;;;;;;;;22.80;43.80;;;;;;5159788;27;19930;-46
2022/02/06 15:31:33;;;;;;;;;;;22.70;43.70;;;;;;5140779;27;20378;-45
2022/02/06 15:34:14;;;;;;;;;;;22.80;43.80;;;;;;5159470;27;19923;-45
2022/02/06 15:36:48;;;;;;;;;;;22.70;43.70;;;;;;5158086;27;19923;-46
2022/02/06 15:39:33;;;;;;;;;;;22.70;43.70;;;;;;5159147;27;19966;-46
2022/02/06 15:42:00;;;;;;;;;;;22.70;43.80;;;;;;5159272;27;19923;-45
2022/02/06 15:44:27;;;;;;;;;;;22.70;43.80;;;;;;5159300;27;19923;-44
2022/02/06 15:46:54;;;;;;;;;;;22.70;43.80;;;;;;5159013;27;19987;-45
2022/02/06 15:49:21;;;;;;;;;;;22.70;43.80;;;;;;5159025;27;19923;-44
2022/02/06 15:51:48;;;;;;;;;;;22.70;43.80;;;;;;5157863;27;20331;-44
2022/02/06 15:54:15;;;;;;;;;;;22.70;43.80;;;;;;5158760;27;19991;-46
2022/02/06 15:56:42;;;;;;;;;;;22.70;43.80;;;;;;5158753;27;19930;-44
2022/02/06 15:59:09;;;;;;;;;;;22.70;43.80;;;;;;5159034;27;19923;-45
2022/02/06 16:01:38;;;;;;;;;;;22.70;43.80;;;;;;5158644;27;19974;-49
2022/02/06 16:04:08;;;;;;;;;;;22.70;43.80;;;;;;5158580;27;19981;-47
2022/02/06 16:06:35;;;;;;;;;;;22.70;43.80;;;;;;5139960;27;19930;-46
2022/02/06 16:09:04;;;;;;;;;;;22.70;43.90;;;;;;5137489;27;20002;-44
2022/02/06 16:11:32;;;;;;;;;;;22.70;43.90;;;;;;5137291;27;19948;-44
2022/02/06 16:14:00;;;;;;;;;;;22.70;43.90;;;;;;5137698;27;19923;-46
2022/02/06 16:16:29;;;;;;;;;;;22.70;43.80;;;;;;5137405;27;19928;-43
2022/02/06 16:18:57;;;;;;;;;;;22.70;43.90;;;;;;5137315;27;20371;-44
2022/02/06 16:21:27;;;;;;;;;;;22.60;43.80;;;;;;5137675;27;19963;-45
2022/02/06 16:23:57;;;;;;;;;;;22.70;43.90;;;;;;5137922;27;19972;-44
2022/02/06 16:26:25;;;;;;;;;;;22.60;43.80;;;;;;5137163;27;19923;-45
2022/02/06 16:28:54;;;;;;;;;;;22.60;43.80;;;;;;5137577;27;19969;-47
2022/02/06 16:31:22;;;;;;;;;;;22.60;43.90;;;;;;5137313;27;19923;-45
2022/02/06 16:33:50;;;;;;;;;;;22.60;43.80;;;;;;5137584;27;19924;-46
2022/02/06 16:36:17;;;;;;;;;;;22.60;43.90;;;;;;5137499;27;20329;-43
2022/02/06 16:38:44;;;;;;;;;;;22.60;43.90;;;;;;5152878;27;19967;-46
2022/02/06 16:41:11;;;;;;;;;;;22.60;43.90;;;;;;5157866;27;20404;-44
2022/02/06 16:43:43;;;;;;;;;;;22.60;43.90;;;;;;5157888;27;19930;-45
2022/02/06 16:46:10;;;;;;;;;;;22.60;43.90;;;;;;5158077;27;19967;-45
2022/02/06 16:48:37;;;;;;;;;;;22.60;43.90;;;;;;5157680;27;19968;-45
2022/02/06 16:51:04;;;;;;;;;;;22.60;43.90;;;;;;5157572;27;19923;-44
2022/02/06 16:53:31;;;;;;;;;;;22.50;43.80;;;;;;5156707;27;19983;-45
2022/02/06 16:55:58;;;;;;;;;;;22.60;44.00;;;;;;5157632;27;20382;-45
2022/02/06 16:58:25;;;;;;;;;;;22.50;43.80;;;;;;5157815;27;19923;-45
2022/02/06 17:00:52;;;;;;;;;;;22.50;43.90;;;;;;5157485;27;19975;-45
2022/02/06 17:03:19;;;;;;;;;;;22.50;43.90;;;;;;5157494;27;19973;-44
2022/02/06 17:05:46;;;;;;;;;;;22.50;43.90;;;;;;5145762;27;19967;-44
2022/02/06 17:08:13;;;;;;;;;;;22.50;43.90;;;;;;5144975;27;19927;-45
2022/02/06 17:10:42;;;;;;;;;;;22.50;43.90;;;;;;5157646;27;20085;-43
2022/02/06 17:13:09;;;;;;;;;;;22.50;43.90;;;;;;5157833;27;19923;-45
2022/02/06 17:15:36;;;;;;;;;;;22.50;43.90;;;;;;5157459;27;19927;-45
2022/02/06 17:18:03;;;;;;;;;;;22.50;43.90;;;;;;5157096;27;20381;-44